createdAt,value
2023-03-27T00:00:56.156Z,93.85
2023-03-27T00:01:56.012Z,93.33
2023-03-27T00:02:56.000Z,90.93
2023-03-27T00:03:56.047Z,90.31
2023-03-27T00:04:55.965Z,91.25
2023-03-27T00:05:55.953Z,90.72
2023-03-27T00:06:55.913Z,91.08
2023-03-27T00:07:55.934Z,93.33
2023-03-27T00:08:55.978Z,90.72
2023-03-27T00:09:55.886Z,92.39
2023-03-27T00:10:56.055Z,92.08
2023-03-27T00:11:55.883Z,90.66
2023-03-27T00:12:55.853Z,92.91
2023-03-27T00:13:55.909Z,89.83
2023-03-27T00:14:55.854Z,92.29
2023-03-27T00:15:55.844Z,94.37
2023-03-27T00:16:55.856Z,95.15
2023-03-27T00:17:55.821Z,90.41
2023-03-27T00:18:55.818Z,90.72
2023-03-27T00:19:55.799Z,89.52
2023-03-27T00:20:55.987Z,94.26
2023-03-27T00:21:55.770Z,92.29
2023-03-27T00:22:55.760Z,90.10
2023-03-27T00:23:55.699Z,92.08
2023-03-27T00:24:55.744Z,89.62
2023-03-27T00:25:55.738Z,90.87
2023-03-27T00:26:55.766Z,89.73
2023-03-27T00:27:55.703Z,90.66
2023-03-27T00:28:55.691Z,88.89
2023-03-27T00:29:55.697Z,90.45
2023-03-27T00:30:56.054Z,90.19
2023-03-27T00:31:55.671Z,89.14
2023-03-27T00:32:55.716Z,91.22
2023-03-27T00:33:55.652Z,90.91
2023-03-27T00:34:55.634Z,90.50
2023-03-27T00:35:55.651Z,92.06
2023-03-27T00:36:55.644Z,91.43
2023-03-27T00:37:55.653Z,92.79
2023-03-27T00:38:55.646Z,93.05
2023-03-27T00:39:55.581Z,94.10
2023-03-27T00:40:55.680Z,95.66
2023-03-27T00:42:06.225Z,93.85
2023-03-27T00:42:55.664Z,93.64
2023-03-27T00:43:55.596Z,94.16
2023-03-27T00:44:55.543Z,91.97
2023-03-27T00:45:55.539Z,91.87
2023-03-27T00:46:55.551Z,92.18
2023-03-27T00:47:55.539Z,92.29
2023-03-27T00:48:55.514Z,91.14
2023-03-27T00:49:55.493Z,93.43
2023-03-27T00:50:55.615Z,92.49
2023-03-27T00:51:55.485Z,92.70
2023-03-27T00:52:55.442Z,93.18
2023-03-27T00:53:55.467Z,92.49
2023-03-27T00:54:55.451Z,93.39
2023-03-27T00:55:55.455Z,91.04
2023-03-27T00:56:55.464Z,92.60
2023-03-27T00:57:55.414Z,91.77
2023-03-27T00:58:55.409Z,93.12
2023-03-27T00:59:55.382Z,91.66
2023-03-27T01:00:55.706Z,92.49
2023-03-27T01:01:55.502Z,93.07
2023-03-27T01:02:55.450Z,92.97
2023-03-27T01:03:55.392Z,90.31
2023-03-27T01:04:55.362Z,88.48
2023-03-27T01:05:55.339Z,89.94
2023-03-27T01:06:55.348Z,91.08
2023-03-27T01:08:00.542Z,91.96
2023-03-27T01:08:55.353Z,91.64
2023-03-27T01:09:55.348Z,91.53
2023-03-27T01:10:55.529Z,93.41
2023-03-27T01:11:55.317Z,93.37
2023-03-27T01:12:55.301Z,92.47
2023-03-27T01:13:55.277Z,90.91
2023-03-27T01:14:55.254Z,90.39
2023-03-27T01:15:55.305Z,90.54
2023-03-27T01:16:55.248Z,88.60
2023-03-27T01:17:55.269Z,90.37
2023-03-27T01:18:55.187Z,92.56
2023-03-27T01:19:55.189Z,96.26
2023-03-27T01:20:55.305Z,95.33
2023-03-27T01:21:55.206Z,95.81
2023-03-27T01:22:55.211Z,95.08
2023-03-27T01:23:59.354Z,94.35
2023-03-27T01:24:55.127Z,91.12
2023-03-27T01:25:55.198Z,92.58
2023-03-27T01:26:55.113Z,92.99
2023-03-27T01:27:55.099Z,92.47
2023-03-27T01:28:55.104Z,92.58
2023-03-27T01:29:55.156Z,90.60
2023-03-27T01:30:55.402Z,92.27
2023-03-27T01:31:55.113Z,94.51
2023-03-27T01:32:55.133Z,94.31
2023-03-27T01:33:55.042Z,95.03
2023-03-27T01:35:01.634Z,93.33
2023-03-27T01:35:55.051Z,91.87
2023-03-27T01:36:54.987Z,92.39
2023-03-27T01:37:54.984Z,91.39
2023-03-27T01:38:55.018Z,91.18
2023-03-27T01:39:54.983Z,92.02
2023-03-27T01:40:55.129Z,92.22
2023-03-27T01:41:54.958Z,89.98
2023-03-27T01:42:54.927Z,89.98
2023-03-27T01:43:54.953Z,90.70
2023-03-27T01:44:54.922Z,90.33
2023-03-27T01:45:54.927Z,91.89
2023-03-27T01:46:54.953Z,94.39
2023-03-27T01:47:54.927Z,92.72
2023-03-27T01:48:54.896Z,93.14
2023-03-27T01:49:54.895Z,94.92
2023-03-27T01:50:55.267Z,93.56
2023-03-27T01:51:54.828Z,94.18
2023-03-27T01:52:54.848Z,95.39
2023-03-27T01:53:54.842Z,94.35
2023-03-27T01:54:54.814Z,95.56
2023-03-27T01:56:05.080Z,92.58
2023-03-27T01:56:54.799Z,90.95
2023-03-27T01:57:54.773Z,88.66
2023-03-27T01:58:54.724Z,90.95
2023-03-27T01:59:54.754Z,92.46
2023-03-27T02:00:54.817Z,93.87
2023-03-27T02:01:54.842Z,92.97
2023-03-27T02:02:54.756Z,93.71
2023-03-27T02:03:54.739Z,93.71
2023-03-27T02:04:54.868Z,95.12
2023-03-27T02:05:54.713Z,92.83
2023-03-27T02:06:54.690Z,94.39
2023-03-27T02:07:54.695Z,93.98
2023-03-27T02:08:54.674Z,92.93
2023-03-27T02:09:54.701Z,93.14
2023-03-27T02:10:54.914Z,92.25
2023-03-27T02:11:54.647Z,93.71
2023-03-27T02:12:54.684Z,93.40
2023-03-27T02:13:54.617Z,94.43
2023-03-27T02:14:54.612Z,93.18
2023-03-27T02:15:54.665Z,90.83
2023-03-27T02:16:54.610Z,89.72
2023-03-27T02:17:54.624Z,89.66
2023-03-27T02:18:54.589Z,90.91
2023-03-27T02:19:54.579Z,91.58
2023-03-27T02:20:54.780Z,93.77
2023-03-27T02:21:54.530Z,93.88
2023-03-27T02:22:54.613Z,94.02
2023-03-27T02:23:54.528Z,94.17
2023-03-27T02:24:54.514Z,94.59
2023-03-27T02:25:54.533Z,94.49
2023-03-27T02:26:54.507Z,95.64
2023-03-27T02:27:54.513Z,96.26
2023-03-27T02:28:54.503Z,95.99
2023-03-27T02:29:54.473Z,95.99
2023-03-27T02:31:06.023Z,96.41
2023-03-27T02:31:54.516Z,96.20
2023-03-27T02:32:54.464Z,95.99
2023-03-27T02:33:54.447Z,95.93
2023-03-27T02:34:54.418Z,96.25
2023-03-27T02:35:54.451Z,96.56
2023-03-27T02:36:54.401Z,98.50
2023-03-27T02:37:54.343Z,98.71
2023-03-27T02:38:54.411Z,98.88
2023-03-27T02:39:54.369Z,98.88
2023-03-27T02:40:54.448Z,98.88
2023-03-27T02:41:54.386Z,98.46
2023-03-27T02:42:54.336Z,98.35
2023-03-27T02:43:54.346Z,98.10
2023-03-27T02:44:54.327Z,98.21
2023-03-27T02:45:54.358Z,98.21
2023-03-27T02:46:54.338Z,98.99
2023-03-27T02:47:54.345Z,99.37
2023-03-27T02:48:54.294Z,98.37
2023-03-27T02:49:54.263Z,96.70
2023-03-27T02:50:54.434Z,96.22
2023-03-27T02:51:54.240Z,95.38
2023-03-27T02:52:54.248Z,95.49
2023-03-27T02:53:54.231Z,96.22
2023-03-27T02:54:54.237Z,97.68
2023-03-27T02:55:54.206Z,97.85
2023-03-27T02:56:54.246Z,97.53
2023-03-27T02:57:54.195Z,97.43
2023-03-27T02:58:54.181Z,98.47
2023-03-27T02:59:54.195Z,97.43
2023-03-27T03:00:54.294Z,95.90
2023-03-27T03:01:54.195Z,94.76
2023-03-27T03:02:54.232Z,94.07
2023-03-27T03:03:54.117Z,93.96
2023-03-27T03:04:54.156Z,94.32
2023-03-27T03:05:54.103Z,95.57
2023-03-27T03:06:54.095Z,96.10
2023-03-27T03:07:54.085Z,96.04
2023-03-27T03:08:54.075Z,95.93
2023-03-27T03:10:02.601Z,95.83
2023-03-27T03:10:54.159Z,96.45
2023-03-27T03:11:54.081Z,96.61
2023-03-27T03:12:54.378Z,96.61
2023-03-27T03:13:54.026Z,96.92
2023-03-27T03:14:54.036Z,97.23
2023-03-27T03:15:53.998Z,97.65
2023-03-27T03:16:54.059Z,98.18
2023-03-27T03:17:54.027Z,98.59
2023-03-27T03:18:53.929Z,98.69
2023-03-27T03:19:54.046Z,98.59
2023-03-27T03:20:54.061Z,98.43
2023-03-27T03:21:53.929Z,98.43
2023-03-27T03:22:53.930Z,99.32
2023-03-27T03:23:57.627Z,99.27
2023-03-27T03:24:53.991Z,99.05
2023-03-27T03:25:53.889Z,98.85
2023-03-27T03:26:53.915Z,98.74
2023-03-27T03:27:53.889Z,98.64
2023-03-27T03:29:00.196Z,99.64
2023-03-27T03:29:53.881Z,99.99
2023-03-27T03:30:54.143Z,99.99
2023-03-27T03:31:53.849Z,99.95
2023-03-27T03:32:53.870Z,99.95
2023-03-27T03:33:53.830Z,99.74
2023-03-27T03:34:53.814Z,99.64
2023-03-27T03:35:53.833Z,99.74
2023-03-27T03:36:53.817Z,99.74
2023-03-27T03:37:53.813Z,99.99
2023-03-27T03:38:53.769Z,99.99
2023-03-27T03:39:53.813Z,99.99
2023-03-27T03:40:53.889Z,99.99
2023-03-27T03:41:53.738Z,99.99
2023-03-27T03:42:53.736Z,99.99
2023-03-27T03:43:53.710Z,99.99
2023-03-27T03:44:53.726Z,99.91
2023-03-27T03:45:53.759Z,99.70
2023-03-27T03:46:53.691Z,99.18
2023-03-27T03:47:53.719Z,98.80
2023-03-27T03:48:53.674Z,98.69
2023-03-27T03:49:53.607Z,98.59
2023-03-27T03:50:53.723Z,98.49
2023-03-27T03:52:04.437Z,98.43
2023-03-27T03:52:53.638Z,98.64
2023-03-27T03:53:53.613Z,98.74
2023-03-27T03:54:53.658Z,98.85
2023-03-27T03:55:53.641Z,99.16
2023-03-27T03:56:53.665Z,99.16
2023-03-27T03:57:53.603Z,99.05
2023-03-27T03:58:53.565Z,99.05
2023-03-27T03:59:53.598Z,99.05
2023-03-27T04:00:53.613Z,99.16
2023-03-27T04:01:53.624Z,99.21
2023-03-27T04:02:53.655Z,99.21
2023-03-27T04:03:53.621Z,99.31
2023-03-27T04:04:53.508Z,99.63
2023-03-27T04:05:53.493Z,99.94
2023-03-27T04:06:53.522Z,99.94
2023-03-27T04:07:53.503Z,99.94
2023-03-27T04:08:53.491Z,99.73
2023-03-27T04:09:53.448Z,99.63
2023-03-27T04:10:53.445Z,99.41
2023-03-27T04:11:53.439Z,99.31
2023-03-27T04:12:53.423Z,99.41
2023-03-27T04:13:53.425Z,99.35
2023-03-27T04:14:53.395Z,99.25
2023-03-27T04:15:53.416Z,99.57
2023-03-27T04:16:53.453Z,99.67
2023-03-27T04:17:53.493Z,99.99
2023-03-27T04:18:53.496Z,99.99
2023-03-27T04:19:53.362Z,99.98
2023-03-27T04:20:53.408Z,99.99
2023-03-27T04:21:53.353Z,99.99
2023-03-27T04:22:54.380Z,99.93
2023-03-27T04:24:00.927Z,99.82
2023-03-27T04:24:53.321Z,99.99
2023-03-27T04:25:53.406Z,99.99
2023-03-27T04:26:53.310Z,99.99
2023-03-27T04:27:53.280Z,99.99
2023-03-27T04:28:53.265Z,99.99
2023-03-27T04:29:53.247Z,99.99
2023-03-27T04:30:53.263Z,99.99
2023-03-27T04:31:53.397Z,99.99
2023-03-27T04:32:53.269Z,99.99
2023-03-27T04:33:53.236Z,99.99
2023-03-27T04:34:53.221Z,99.99
2023-03-27T04:36:05.991Z,99.99
2023-03-27T04:36:53.201Z,99.99
2023-03-27T04:37:53.227Z,99.99
2023-03-27T04:38:53.214Z,99.99
2023-03-27T04:39:53.144Z,99.99
2023-03-27T04:40:53.148Z,99.99
2023-03-27T04:41:53.143Z,99.99
2023-03-27T04:42:53.234Z,99.99
2023-03-27T04:43:53.069Z,99.99
2023-03-27T04:44:53.056Z,99.99
2023-03-27T04:45:53.142Z,99.99
2023-03-27T04:46:53.128Z,99.99
2023-03-27T04:47:53.125Z,99.99
2023-03-27T04:48:53.112Z,99.99
2023-03-27T04:49:53.011Z,99.99
2023-03-27T04:50:53.015Z,99.99
2023-03-27T04:51:52.977Z,99.99
2023-03-27T04:52:52.976Z,99.99
2023-03-27T04:53:52.987Z,99.99
2023-03-27T04:54:52.966Z,99.99
2023-03-27T04:55:52.967Z,99.99
2023-03-27T04:56:53.001Z,99.99
2023-03-27T04:57:52.936Z,99.99
2023-03-27T04:58:53.318Z,99.99
2023-03-27T04:59:53.028Z,99.99
2023-03-27T05:00:52.947Z,99.99
2023-03-27T05:01:52.893Z,99.92
2023-03-27T05:02:53.058Z,99.99
2023-03-27T05:03:52.934Z,99.92
2023-03-27T05:04:52.855Z,99.13
2023-03-27T05:05:52.844Z,98.61
2023-03-27T05:06:52.844Z,99.24
2023-03-27T05:07:52.829Z,99.07
2023-03-27T05:08:52.873Z,99.07
2023-03-27T05:09:52.822Z,99.28
2023-03-27T05:10:52.801Z,99.18
2023-03-27T05:11:52.830Z,98.97
2023-03-27T05:12:52.814Z,99.99
2023-03-27T05:13:52.793Z,99.99
2023-03-27T05:14:52.758Z,99.91
2023-03-27T05:15:52.731Z,99.99
2023-03-27T05:16:52.785Z,99.99
2023-03-27T05:17:52.857Z,99.99
2023-03-27T05:18:52.719Z,99.99
2023-03-27T05:19:52.715Z,99.99
2023-03-27T05:20:52.706Z,99.99
2023-03-27T05:21:52.689Z,99.99
2023-03-27T05:22:52.684Z,99.99
2023-03-27T05:23:52.668Z,99.99
2023-03-27T05:24:52.668Z,99.99
2023-03-27T05:25:59.921Z,99.99
2023-03-27T05:26:52.667Z,99.99
2023-03-27T05:27:52.611Z,99.99
2023-03-27T05:28:52.669Z,99.99
2023-03-27T05:29:52.689Z,98.50
2023-03-27T05:30:52.655Z,97.94
2023-03-27T05:31:52.587Z,98.77
2023-03-27T05:32:52.730Z,99.24
2023-03-27T05:33:52.871Z,97.99
2023-03-27T05:35:00.158Z,98.31
2023-03-27T05:35:52.833Z,98.88
2023-03-27T05:36:52.556Z,96.28
2023-03-27T05:37:52.571Z,94.35
2023-03-27T05:38:52.541Z,95.39
2023-03-27T05:39:52.496Z,95.81
2023-03-27T05:40:52.546Z,93.73
2023-03-27T05:41:52.560Z,94.39
2023-03-27T05:42:52.483Z,95.18
2023-03-27T05:43:52.552Z,96.85
2023-03-27T05:44:52.496Z,97.06
2023-03-27T05:45:52.528Z,96.49
2023-03-27T05:46:52.454Z,93.52
2023-03-27T05:47:52.443Z,95.18
2023-03-27T05:48:52.408Z,97.95
2023-03-27T05:49:52.403Z,97.01
2023-03-27T05:50:52.476Z,94.62
2023-03-27T05:51:52.389Z,92.37
2023-03-27T05:52:52.369Z,94.93
2023-03-27T05:53:52.370Z,97.22
2023-03-27T05:54:52.346Z,91.22
2023-03-27T05:56:03.098Z,91.47
2023-03-27T05:56:52.339Z,90.01
2023-03-27T05:57:52.321Z,92.52
2023-03-27T05:58:52.303Z,91.31
2023-03-27T05:59:52.326Z,92.87
2023-03-27T06:00:52.345Z,93.66
2023-03-27T06:01:52.281Z,94.76
2023-03-27T06:02:52.374Z,94.66
2023-03-27T06:03:52.354Z,93.05
2023-03-27T06:04:52.276Z,92.54
2023-03-27T06:05:52.271Z,91.50
2023-03-27T06:06:52.237Z,92.33
2023-03-27T06:07:52.235Z,90.35
2023-03-27T06:08:52.255Z,91.33
2023-03-27T06:09:52.208Z,91.64
2023-03-27T06:10:53.160Z,92.06
2023-03-27T06:11:52.177Z,92.31
2023-03-27T06:12:52.176Z,94.98
2023-03-27T06:13:52.195Z,95.66
2023-03-27T06:14:53.049Z,93.85
2023-03-27T06:15:52.231Z,92.80
2023-03-27T06:16:52.146Z,95.47
2023-03-27T06:17:52.162Z,94.38
2023-03-27T06:18:52.124Z,91.20
2023-03-27T06:19:52.104Z,91.83
2023-03-27T06:20:52.084Z,89.89
2023-03-27T06:21:52.086Z,91.35
2023-03-27T06:22:52.103Z,91.14
2023-03-27T06:23:52.063Z,92.91
2023-03-27T06:24:52.051Z,93.80
2023-03-27T06:25:52.052Z,95.05
2023-03-27T06:26:52.037Z,92.14
2023-03-27T06:27:52.022Z,91.52
2023-03-27T06:28:52.002Z,93.18
2023-03-27T06:29:52.009Z,91.52
2023-03-27T06:30:52.104Z,92.14
2023-03-27T06:31:52.036Z,92.76
2023-03-27T06:32:52.034Z,91.62
2023-03-27T06:33:51.946Z,90.37
2023-03-27T06:34:51.957Z,91.72
2023-03-27T06:35:53.350Z,93.03
2023-03-27T06:36:51.933Z,94.18
2023-03-27T06:37:51.956Z,92.10
2023-03-27T06:38:51.928Z,92.88
2023-03-27T06:39:52.115Z,87.94
2023-03-27T06:40:51.929Z,92.72
2023-03-27T06:41:51.879Z,90.75
2023-03-27T06:42:51.870Z,90.95
2023-03-27T06:43:51.856Z,92.61
2023-03-27T06:44:51.839Z,91.68
2023-03-27T06:45:52.588Z,91.89
2023-03-27T06:46:51.881Z,91.33
2023-03-27T06:47:55.314Z,92.68
2023-03-27T06:48:52.008Z,92.84
2023-03-27T06:49:51.806Z,91.28
2023-03-27T06:50:51.824Z,91.14
2023-03-27T06:52:07.099Z,91.14
2023-03-27T06:52:51.852Z,90.62
2023-03-27T06:53:51.769Z,89.06
2023-03-27T06:54:51.761Z,88.85
2023-03-27T06:55:51.746Z,90.00
2023-03-27T06:56:51.838Z,90.00
2023-03-27T06:57:51.728Z,90.10
2023-03-27T06:58:51.750Z,90.10
2023-03-27T06:59:51.692Z,90.48
2023-03-27T07:00:51.715Z,91.47
2023-03-27T07:01:51.756Z,88.09
2023-03-27T07:02:51.719Z,90.12
2023-03-27T07:03:51.689Z,89.81
2023-03-27T07:05:03.814Z,88.15
2023-03-27T07:05:51.739Z,87.68
2023-03-27T07:06:51.657Z,90.02
2023-03-27T07:07:51.661Z,89.09
2023-03-27T07:08:51.584Z,89.50
2023-03-27T07:09:51.574Z,89.29
2023-03-27T07:11:03.829Z,87.95
2023-03-27T07:11:51.571Z,88.15
2023-03-27T07:12:51.558Z,87.01
2023-03-27T07:13:51.543Z,89.15
2023-03-27T07:14:51.558Z,88.73
2023-03-27T07:15:51.512Z,88.53
2023-03-27T07:16:51.579Z,86.66
2023-03-27T07:17:51.539Z,85.25
2023-03-27T07:18:51.538Z,86.60
2023-03-27T07:19:51.484Z,86.29
2023-03-27T07:20:51.481Z,86.80
2023-03-27T07:21:51.481Z,88.05
2023-03-27T07:22:51.461Z,87.80
2023-03-27T07:23:51.613Z,85.66
2023-03-27T07:24:51.423Z,85.25
2023-03-27T07:25:51.416Z,87.12
2023-03-27T07:26:51.441Z,87.95
2023-03-27T07:27:51.583Z,86.87
2023-03-27T07:28:51.488Z,87.18
2023-03-27T07:29:51.381Z,84.59
2023-03-27T07:30:51.482Z,84.73
2023-03-27T07:32:51.385Z,85.73
2023-03-27T07:33:51.534Z,86.66
2023-03-27T07:34:51.353Z,85.73
2023-03-27T07:35:51.347Z,86.52
2023-03-27T07:36:51.300Z,86.62
2023-03-27T07:37:51.295Z,84.86
2023-03-27T07:38:51.278Z,85.17
2023-03-27T07:39:51.283Z,84.44
2023-03-27T07:40:51.278Z,84.55
2023-03-27T07:41:51.278Z,84.96
2023-03-27T07:42:51.250Z,85.58
2023-03-27T07:43:51.231Z,83.24
2023-03-27T07:44:51.257Z,81.99
2023-03-27T07:45:51.271Z,82.41
2023-03-27T07:46:51.202Z,84.48
2023-03-27T07:47:51.218Z,86.15
2023-03-27T07:48:51.190Z,86.00
2023-03-27T07:49:51.162Z,84.23
2023-03-27T07:50:51.853Z,83.31
2023-03-27T07:51:51.198Z,83.24
2023-03-27T07:52:51.156Z,81.37
2023-03-27T07:53:51.124Z,80.58
2023-03-27T07:54:51.141Z,85.46
2023-03-27T07:55:51.136Z,85.42
2023-03-27T07:56:51.201Z,84.13
2023-03-27T07:58:00.644Z,85.06
2023-03-27T07:58:51.097Z,85.79
2023-03-27T07:59:51.102Z,84.41
2023-03-27T08:00:51.095Z,84.30
2023-03-27T08:01:51.230Z,81.20
2023-03-27T08:02:51.163Z,81.82
2023-03-27T08:03:51.158Z,83.47
2023-03-27T08:04:51.222Z,83.16
2023-03-27T08:06:02.233Z,80.36
2023-03-27T08:06:51.117Z,83.26
2023-03-27T08:07:50.997Z,82.44
2023-03-27T08:08:51.027Z,83.16
2023-03-27T08:09:50.961Z,82.81
2023-03-27T08:10:50.954Z,79.23
2023-03-27T08:11:50.969Z,79.54
2023-03-27T08:12:50.997Z,82.44
2023-03-27T08:13:50.941Z,83.26
2023-03-27T08:14:50.916Z,79.40
2023-03-27T08:15:50.893Z,81.99
2023-03-27T08:16:51.516Z,77.92
2023-03-27T08:17:50.941Z,78.85
2023-03-27T08:18:50.940Z,83.20
2023-03-27T08:19:50.852Z,83.68
2023-03-27T08:20:50.854Z,83.54
2023-03-27T08:21:50.893Z,82.60
2023-03-27T08:22:50.882Z,77.26
2023-03-27T08:23:50.833Z,77.92
2023-03-27T08:24:50.873Z,81.13
2023-03-27T08:25:50.794Z,80.68
2023-03-27T08:26:50.825Z,79.68
2023-03-27T08:27:50.848Z,80.57
2023-03-27T08:28:50.838Z,82.29
2023-03-27T08:29:50.785Z,79.71
2023-03-27T08:30:50.844Z,80.85
2023-03-27T08:31:50.724Z,78.57
2023-03-27T08:32:50.861Z,82.98
2023-03-27T08:33:50.720Z,81.43
2023-03-27T08:34:50.748Z,78.16
2023-03-27T08:35:50.737Z,75.92
2023-03-27T08:36:50.732Z,76.46
2023-03-27T08:37:50.693Z,77.29
2023-03-27T08:38:50.738Z,79.58
2023-03-27T08:39:50.707Z,82.54
2023-03-27T08:40:50.670Z,78.40
2023-03-27T08:41:50.656Z,78.88
2023-03-27T08:42:50.643Z,79.19
2023-03-27T08:43:50.652Z,78.22
2023-03-27T08:44:50.637Z,78.74
2023-03-27T08:45:50.601Z,76.67
2023-03-27T08:46:50.646Z,79.47
2023-03-27T08:47:50.592Z,81.60
2023-03-27T08:48:50.585Z,79.33
2023-03-27T08:49:50.560Z,76.12
2023-03-27T08:50:50.581Z,79.02
2023-03-27T08:51:50.538Z,78.81
2023-03-27T08:52:50.540Z,75.91
2023-03-27T08:53:50.509Z,79.47
2023-03-27T08:54:50.510Z,81.60
2023-03-27T08:55:50.499Z,80.43
2023-03-27T08:56:50.575Z,77.22
2023-03-27T08:57:50.465Z,77.43
2023-03-27T08:58:50.474Z,79.91
2023-03-27T08:59:50.482Z,78.42
2023-03-27T09:00:50.446Z,76.64
2023-03-27T09:01:50.472Z,76.53
2023-03-27T09:02:50.516Z,77.53
2023-03-27T09:03:50.577Z,74.15
2023-03-27T09:04:50.417Z,75.43
2023-03-27T09:05:50.394Z,76.09
2023-03-27T09:06:50.399Z,79.08
2023-03-27T09:07:50.366Z,79.56
2023-03-27T09:08:50.415Z,78.94
2023-03-27T09:09:50.435Z,76.36
2023-03-27T09:10:50.352Z,74.22
2023-03-27T09:11:50.320Z,77.64
2023-03-27T09:12:50.322Z,74.95
2023-03-27T09:13:50.336Z,75.15
2023-03-27T09:14:50.357Z,74.40
2023-03-27T09:15:50.320Z,74.81
2023-03-27T09:16:50.389Z,72.64
2023-03-27T09:17:50.311Z,75.22
2023-03-27T09:18:50.282Z,76.73
2023-03-27T09:19:58.794Z,75.01
2023-03-27T09:20:50.918Z,77.98
2023-03-27T09:21:50.275Z,75.91
2023-03-27T09:22:50.243Z,73.33
2023-03-27T09:23:50.260Z,72.95
2023-03-27T09:24:50.226Z,74.95
2023-03-27T09:25:50.266Z,76.81
2023-03-27T09:27:01.043Z,75.67
2023-03-27T09:27:50.199Z,71.43
2023-03-27T09:28:50.164Z,76.36
2023-03-27T09:29:50.160Z,73.64
2023-03-27T09:30:50.182Z,75.91
2023-03-27T09:31:50.353Z,71.92
2023-03-27T09:32:50.164Z,72.33
2023-03-27T09:33:50.121Z,75.01
2023-03-27T09:34:50.106Z,74.60
2023-03-27T09:35:50.126Z,72.12
2023-03-27T09:36:50.114Z,71.50
2023-03-27T09:37:50.070Z,70.61
2023-03-27T09:38:50.097Z,74.53
2023-03-27T09:39:50.090Z,76.67
2023-03-27T09:40:50.059Z,72.85
2023-03-27T09:41:50.064Z,75.70
2023-03-27T09:42:50.039Z,76.46
2023-03-27T09:43:50.031Z,72.50
2023-03-27T09:44:50.018Z,72.61
2023-03-27T09:45:50.002Z,73.12
2023-03-27T09:46:50.079Z,73.19
2023-03-27T09:47:50.071Z,70.82
2023-03-27T09:48:50.042Z,70.20
2023-03-27T09:49:49.956Z,69.07
2023-03-27T09:50:49.978Z,71.61
2023-03-27T09:51:49.959Z,68.73
2023-03-27T09:52:49.924Z,70.48
2023-03-27T09:53:49.887Z,70.00
2023-03-27T09:54:49.917Z,71.23
2023-03-27T09:55:49.953Z,65.39
2023-03-27T09:56:49.899Z,67.45
2023-03-27T09:57:49.876Z,67.35
2023-03-27T09:58:49.886Z,68.48
2023-03-27T09:59:49.883Z,66.79
2023-03-27T10:00:49.898Z,68.54
2023-03-27T10:01:49.833Z,70.64
2023-03-27T10:02:49.855Z,72.26
2023-03-27T10:03:49.874Z,66.17
2023-03-27T10:04:49.833Z,69.75
2023-03-27T10:05:49.804Z,66.86
2023-03-27T10:06:49.780Z,65.42
2023-03-27T10:07:49.788Z,61.83
2023-03-27T10:08:49.799Z,65.03
2023-03-27T10:09:49.763Z,72.06
2023-03-27T10:10:49.760Z,67.72
2023-03-27T10:11:49.733Z,70.40
2023-03-27T10:12:49.721Z,70.30
2023-03-27T10:13:49.729Z,67.82
2023-03-27T10:14:52.253Z,68.48
2023-03-27T10:15:49.735Z,68.65
2023-03-27T10:16:49.713Z,69.54
2023-03-27T10:17:49.727Z,68.07
2023-03-27T10:18:49.644Z,65.00
2023-03-27T10:19:49.658Z,68.93
2023-03-27T10:20:49.691Z,67.97
2023-03-27T10:21:49.693Z,63.95
2023-03-27T10:22:49.623Z,65.08
2023-03-27T10:23:49.808Z,61.98
2023-03-27T10:24:49.623Z,62.08
2023-03-27T10:25:49.678Z,65.94
2023-03-27T10:26:49.613Z,67.76
2023-03-27T10:27:49.589Z,68.27
2023-03-27T10:28:49.616Z,67.48
2023-03-27T10:29:49.646Z,66.83
2023-03-27T10:30:49.831Z,62.08
2023-03-27T10:31:49.602Z,66.42
2023-03-27T10:32:49.611Z,63.53
2023-03-27T10:33:49.775Z,64.22
2023-03-27T10:34:49.653Z,61.44
2023-03-27T10:35:49.595Z,66.28
2023-03-27T10:36:49.514Z,65.74
2023-03-27T10:37:50.244Z,62.88
2023-03-27T10:38:49.513Z,61.16
2023-03-27T10:39:49.558Z,63.22
2023-03-27T10:40:49.450Z,65.05
2023-03-27T10:41:49.470Z,66.18
2023-03-27T10:42:49.426Z,61.78
2023-03-27T10:43:49.442Z,62.19
2023-03-27T10:44:49.391Z,63.53
2023-03-27T10:45:49.466Z,63.67
2023-03-27T10:46:49.380Z,61.01
2023-03-27T10:47:49.410Z,61.52
2023-03-27T10:48:49.378Z,66.58
2023-03-27T10:49:49.350Z,70.40
2023-03-27T10:50:49.317Z,68.10
2023-03-27T10:51:49.374Z,64.77
2023-03-27T10:52:49.332Z,64.02
2023-03-27T10:53:49.441Z,64.02
2023-03-27T10:54:49.306Z,65.33
2023-03-27T10:55:49.306Z,62.93
2023-03-27T10:56:49.333Z,60.25
2023-03-27T10:57:49.271Z,65.61
2023-03-27T10:58:49.272Z,59.19
2023-03-27T10:59:49.433Z,59.12
2023-03-27T11:00:49.254Z,60.69
2023-03-27T11:01:49.289Z,60.41
2023-03-27T11:02:49.318Z,64.95
2023-03-27T11:03:49.256Z,61.57
2023-03-27T11:04:49.205Z,65.00
2023-03-27T11:05:49.214Z,69.03
2023-03-27T11:06:49.203Z,70.68
2023-03-27T11:07:49.160Z,70.06
2023-03-27T11:08:49.132Z,70.09
2023-03-27T11:09:49.148Z,72.57
2023-03-27T11:10:49.151Z,72.02
2023-03-27T11:11:49.116Z,71.20
2023-03-27T11:12:49.121Z,70.09
2023-03-27T11:13:49.111Z,73.71
2023-03-27T11:14:49.179Z,73.05
2023-03-27T11:15:49.090Z,72.26
2023-03-27T11:16:49.117Z,74.19
2023-03-27T11:17:49.159Z,73.47
2023-03-27T11:18:49.057Z,71.47
2023-03-27T11:19:49.027Z,70.13
2023-03-27T11:20:49.034Z,72.27
2023-03-27T11:21:49.018Z,70.31
2023-03-27T11:22:49.021Z,69.38
2023-03-27T11:23:48.999Z,67.93
2023-03-27T11:24:49.004Z,70.20
2023-03-27T11:25:49.005Z,70.07
2023-03-27T11:26:48.952Z,68.04
2023-03-27T11:27:48.968Z,70.51
2023-03-27T11:28:48.930Z,67.83
2023-03-27T11:29:48.958Z,67.14
2023-03-27T11:30:48.922Z,70.86
2023-03-27T11:31:49.008Z,67.14
2023-03-27T11:32:49.155Z,69.34
2023-03-27T11:33:48.897Z,73.12
2023-03-27T11:34:48.942Z,73.29
2023-03-27T11:35:48.962Z,74.43
2023-03-27T11:36:48.970Z,76.23
2023-03-27T11:37:48.880Z,77.71
2023-03-27T11:38:48.856Z,79.61
2023-03-27T11:39:48.962Z,80.99
2023-03-27T11:40:48.953Z,82.18
2023-03-27T11:41:48.858Z,83.22
2023-03-27T11:42:49.670Z,85.19
2023-03-27T11:43:48.859Z,82.70
2023-03-27T11:44:48.789Z,81.70
2023-03-27T11:45:48.884Z,82.94
2023-03-27T11:46:48.802Z,84.73
2023-03-27T11:47:48.796Z,82.72
2023-03-27T11:51:07.171Z,74.50
2023-03-27T11:52:08.115Z,76.81
2023-03-27T11:53:08.174Z,76.50
2023-03-27T11:54:08.073Z,76.26
2023-03-27T11:55:08.029Z,77.64
2023-03-27T11:56:08.144Z,74.22
2023-03-27T11:57:08.065Z,77.12
2023-03-27T11:58:08.493Z,78.33
2023-03-27T11:59:07.994Z,76.01
2023-03-27T12:00:08.122Z,74.22
2023-03-27T12:01:08.225Z,75.26
2023-03-27T12:02:08.012Z,70.19
2023-03-27T12:03:08.045Z,72.16
2023-03-27T12:04:08.122Z,72.19
2023-03-27T12:05:07.936Z,72.81
2023-03-27T12:06:07.911Z,72.94
2023-03-27T12:07:12.037Z,78.29
2023-03-27T12:08:07.966Z,75.40
2023-03-27T12:09:09.632Z,75.81
2023-03-27T12:12:10.870Z,78.22
2023-03-27T12:15:04.485Z,76.29
2023-03-27T12:16:05.504Z,75.57
2023-03-27T12:17:05.671Z,77.33
2023-03-27T12:18:05.578Z,78.15
2023-03-27T12:37:29.383Z,72.71
2023-03-27T12:38:31.380Z,71.26
2023-03-27T12:39:29.915Z,72.37
2023-03-27T12:40:38.840Z,71.44
2023-03-27T12:41:29.709Z,71.51
2023-03-27T12:42:29.693Z,71.72
2023-03-27T12:43:29.792Z,70.48
2023-03-27T12:47:09.250Z,73.05
2023-03-27T12:50:38.166Z,70.68
2023-03-27T12:51:38.955Z,67.07
2023-03-27T12:52:38.931Z,73.47
2023-03-27T12:53:38.887Z,73.47
2023-03-27T12:58:51.958Z,71.26
2023-03-27T12:59:51.098Z,72.19
2023-03-27T13:00:51.278Z,71.92
2023-03-27T13:01:52.618Z,74.15
2023-03-27T13:04:39.490Z,73.81
2023-03-27T13:05:40.237Z,72.78
2023-03-27T13:06:40.317Z,73.57
2023-03-27T13:07:40.233Z,75.81
2023-03-27T13:08:40.204Z,79.32
2023-03-27T13:09:40.252Z,80.46
2023-03-27T13:10:40.169Z,81.21
2023-03-27T13:11:40.370Z,82.04
2023-03-27T13:12:40.342Z,81.84
2023-03-27T13:13:40.294Z,82.43
2023-03-27T13:14:40.173Z,84.19
2023-03-27T13:15:40.171Z,85.78
2023-03-27T13:16:40.106Z,86.60
2023-03-27T13:17:40.143Z,87.64
2023-03-27T13:18:40.096Z,87.12
2023-03-27T13:19:40.065Z,87.85
2023-03-27T13:20:40.069Z,87.33
2023-03-27T13:21:40.207Z,87.43
2023-03-27T13:22:40.042Z,87.95
2023-03-27T13:23:40.063Z,87.49
2023-03-27T13:24:40.058Z,85.53
2023-03-27T13:25:40.040Z,84.95
2023-03-27T13:26:40.016Z,87.39
2023-03-27T13:27:39.991Z,86.63
2023-03-27T13:28:39.992Z,86.01
2023-03-27T13:29:39.992Z,85.86